createdAt,value
2019-01-16T00:00:21.185Z,0.00
2019-01-16T00:01:21.124Z,0.00
2019-01-16T00:02:21.099Z,0.00
2019-01-16T00:03:21.087Z,0.00
2019-01-16T00:04:21.156Z,0.00
2019-01-16T00:05:21.063Z,0.00
2019-01-16T00:06:21.057Z,0.00
2019-01-16T00:07:21.091Z,0.00
2019-01-16T00:08:21.032Z,0.00
2019-01-16T00:09:21.027Z,0.00
2019-01-16T00:10:21.036Z,0.00
2019-01-16T00:11:20.995Z,0.00
2019-01-16T00:12:20.983Z,0.00
2019-01-16T00:13:21.003Z,0.00
2019-01-16T00:14:20.963Z,0.00
2019-01-16T00:15:20.973Z,0.00
2019-01-16T00:16:20.944Z,0.00
2019-01-16T00:17:20.937Z,0.00
2019-01-16T00:18:20.964Z,0.00
2019-01-16T00:19:20.909Z,0.00
2019-01-16T00:20:20.921Z,0.00
2019-01-16T00:21:20.918Z,0.00
2019-01-16T00:22:20.889Z,0.00
2019-01-16T00:23:20.879Z,0.00
2019-01-16T00:24:20.894Z,0.00
2019-01-16T00:25:20.883Z,0.00
2019-01-16T00:26:20.827Z,0.00
2019-01-16T00:27:20.814Z,0.00
2019-01-16T00:28:20.811Z,0.00
2019-01-16T00:29:20.870Z,0.00
2019-01-16T00:30:20.798Z,0.00
2019-01-16T00:31:20.794Z,0.00
2019-01-16T00:32:20.763Z,0.00
2019-01-16T00:33:20.760Z,0.00
2019-01-16T00:34:20.742Z,0.00
2019-01-16T00:35:20.769Z,0.00
2019-01-16T00:36:20.738Z,0.00
2019-01-16T00:37:20.723Z,0.00
2019-01-16T00:38:20.693Z,0.00
2019-01-16T00:39:20.684Z,0.00
2019-01-16T00:40:20.678Z,0.00
2019-01-16T00:41:20.677Z,0.00
2019-01-16T00:42:20.673Z,0.00
2019-01-16T00:43:20.634Z,0.00
2019-01-16T00:44:20.626Z,0.00
2019-01-16T00:45:20.629Z,0.00
2019-01-16T00:46:20.629Z,0.00
2019-01-16T00:47:20.603Z,0.00
2019-01-16T00:48:24.551Z,0.00
2019-01-16T00:49:20.628Z,0.00
2019-01-16T00:50:20.562Z,0.00
2019-01-16T00:51:20.555Z,0.00
2019-01-16T00:52:20.563Z,0.00
2019-01-16T00:53:20.533Z,0.00
2019-01-16T00:54:20.526Z,0.00
2019-01-16T00:55:20.504Z,0.00
2019-01-16T00:56:20.528Z,0.00
2019-01-16T00:57:20.485Z,0.00
2019-01-16T00:58:20.505Z,0.00
2019-01-16T00:59:20.474Z,0.00
2019-01-16T01:00:20.447Z,0.00
2019-01-16T01:01:20.439Z,0.00
2019-01-16T01:02:20.427Z,0.00
2019-01-16T01:03:20.438Z,0.00
2019-01-16T01:04:20.422Z,0.00
2019-01-16T01:05:20.407Z,0.00
2019-01-16T01:06:20.390Z,0.00
2019-01-16T01:07:20.378Z,0.00
2019-01-16T01:08:20.385Z,0.00
2019-01-16T01:09:20.348Z,0.00
2019-01-16T01:10:20.352Z,0.00
2019-01-16T01:11:20.346Z,0.00
2019-01-16T01:12:20.322Z,0.00
2019-01-16T01:13:20.301Z,0.00
2019-01-16T01:14:20.753Z,0.00
2019-01-16T01:15:20.315Z,0.00
2019-01-16T01:16:20.296Z,0.00
2019-01-16T01:17:20.268Z,0.00
2019-01-16T01:18:20.245Z,0.00
2019-01-16T01:19:20.258Z,0.00
2019-01-16T01:20:20.258Z,0.00
2019-01-16T01:21:20.217Z,0.00
2019-01-16T01:22:20.229Z,0.00
2019-01-16T01:23:20.192Z,0.00
2019-01-16T01:24:20.182Z,0.00
2019-01-16T01:25:20.273Z,0.00
2019-01-16T01:26:20.168Z,0.00
2019-01-16T01:27:20.154Z,0.00
2019-01-16T01:28:20.134Z,0.00
2019-01-16T01:29:20.120Z,0.00
2019-01-16T01:30:20.133Z,0.00
2019-01-16T01:31:20.144Z,0.00
2019-01-16T01:32:20.111Z,0.00
2019-01-16T01:33:20.099Z,0.00
2019-01-16T01:34:21.534Z,0.00
2019-01-16T01:35:20.061Z,0.00
2019-01-16T01:36:20.098Z,0.00
2019-01-16T01:37:20.077Z,0.00
2019-01-16T01:38:20.037Z,0.00
2019-01-16T01:39:20.012Z,0.00
2019-01-16T01:40:20.005Z,0.00
2019-01-16T01:41:20.001Z,0.00
2019-01-16T01:42:20.007Z,0.00
2019-01-16T01:43:20.041Z,0.00
2019-01-16T01:44:19.971Z,0.00
2019-01-16T01:45:19.947Z,0.00
2019-01-16T01:46:19.937Z,0.00
2019-01-16T01:47:19.924Z,0.00
2019-01-16T01:48:19.945Z,0.00
2019-01-16T01:49:19.929Z,0.00
2019-01-16T01:50:19.900Z,0.00
2019-01-16T01:51:19.884Z,0.00
2019-01-16T01:52:19.870Z,0.00
2019-01-16T01:53:19.866Z,0.00
2019-01-16T01:54:19.938Z,0.00
2019-01-16T01:55:19.843Z,0.00
2019-01-16T01:56:19.841Z,0.00
2019-01-16T01:57:19.828Z,0.00
2019-01-16T01:58:19.816Z,0.00
2019-01-16T01:59:19.798Z,0.00
2019-01-16T02:00:19.800Z,0.00
2019-01-16T02:01:19.782Z,0.00
2019-01-16T02:02:19.828Z,0.00
2019-01-16T02:03:19.746Z,0.00
2019-01-16T02:04:19.755Z,0.00
2019-01-16T02:05:19.740Z,0.00
2019-01-16T02:06:19.728Z,0.00
2019-01-16T02:07:19.715Z,0.00
2019-01-16T02:08:19.704Z,0.00
2019-01-16T02:09:20.406Z,0.00
2019-01-16T02:10:19.666Z,0.00
2019-01-16T02:11:19.658Z,0.00
2019-01-16T02:12:19.661Z,0.00
2019-01-16T02:13:19.645Z,0.00
2019-01-16T02:14:19.626Z,0.00
2019-01-16T02:15:19.653Z,0.00
2019-01-16T02:16:19.601Z,0.00
2019-01-16T02:17:19.591Z,0.00
2019-01-16T02:18:19.623Z,0.00
2019-01-16T02:19:19.561Z,0.00
2019-01-16T02:20:19.555Z,0.00
2019-01-16T02:21:19.566Z,0.00
2019-01-16T02:22:19.542Z,0.00
2019-01-16T02:23:19.525Z,0.00
2019-01-16T02:24:19.543Z,0.00
2019-01-16T02:25:19.512Z,0.00
2019-01-16T02:26:19.506Z,0.00
2019-01-16T02:27:19.487Z,0.00
2019-01-16T02:28:19.465Z,0.00
2019-01-16T02:29:19.466Z,0.00
2019-01-16T02:30:19.480Z,0.00
2019-01-16T02:31:19.501Z,0.00
2019-01-16T02:32:19.419Z,0.00
2019-01-16T02:33:19.414Z,0.00
2019-01-16T02:34:19.422Z,0.00
2019-01-16T02:35:19.399Z,0.00
2019-01-16T02:36:19.395Z,0.00
2019-01-16T02:37:19.374Z,0.00
2019-01-16T02:38:19.363Z,0.00
2019-01-16T02:39:19.355Z,0.00
2019-01-16T02:40:19.347Z,0.00
2019-01-16T02:41:19.343Z,0.00
2019-01-16T02:42:19.370Z,0.00
2019-01-16T02:43:19.314Z,0.00
2019-01-16T02:44:19.291Z,0.00
2019-01-16T02:45:19.280Z,0.00
2019-01-16T02:46:19.328Z,0.00
2019-01-16T02:47:19.263Z,0.00
2019-01-16T02:48:19.273Z,0.00
2019-01-16T02:49:19.287Z,0.00
2019-01-16T02:50:19.219Z,0.00
2019-01-16T02:51:19.220Z,0.00
2019-01-16T02:52:19.271Z,0.00
2019-01-16T02:53:19.210Z,0.00
2019-01-16T02:54:19.188Z,0.00
2019-01-16T02:55:19.161Z,0.00
2019-01-16T02:56:19.161Z,0.00
2019-01-16T02:57:19.174Z,0.00
2019-01-16T02:58:19.167Z,0.00
2019-01-16T02:59:19.144Z,0.00
2019-01-16T03:00:19.120Z,0.00
2019-01-16T03:01:19.100Z,0.00
2019-01-16T03:02:19.092Z,0.00
2019-01-16T03:03:19.087Z,0.00
2019-01-16T03:04:19.093Z,0.00
2019-01-16T03:05:19.078Z,0.00
2019-01-16T03:06:19.044Z,0.00
2019-01-16T03:07:19.071Z,0.00
2019-01-16T03:08:19.031Z,0.00
2019-01-16T03:09:19.053Z,0.00
2019-01-16T03:10:19.041Z,0.00
2019-01-16T03:11:19.009Z,0.00
2019-01-16T03:12:18.974Z,0.00
2019-01-16T03:13:18.993Z,0.00
2019-01-16T03:14:18.951Z,0.00
2019-01-16T03:15:18.962Z,0.00
2019-01-16T03:16:18.930Z,0.00
2019-01-16T03:17:18.929Z,0.00
2019-01-16T03:18:19.121Z,0.00
2019-01-16T03:20:29.644Z,0.00
2019-01-16T03:21:29.203Z,0.00
2019-01-16T03:22:29.268Z,0.00
2019-01-16T03:23:29.168Z,0.00
2019-01-16T03:24:29.069Z,0.00
2019-01-16T03:25:29.045Z,0.00
2019-01-16T03:26:29.071Z,0.00
2019-01-16T03:27:29.015Z,0.00
2019-01-16T03:28:29.018Z,0.00
2019-01-16T03:29:28.994Z,0.00
2019-01-16T03:30:28.994Z,0.00
2019-01-16T03:31:29.058Z,0.00
2019-01-16T03:32:29.001Z,0.00
2019-01-16T03:33:28.946Z,0.00
2019-01-16T03:34:28.937Z,0.00
2019-01-16T03:35:28.927Z,0.00
2019-01-16T03:36:28.914Z,0.00
2019-01-16T03:37:28.919Z,0.00
2019-01-16T03:38:28.926Z,0.00
2019-01-16T03:39:28.886Z,0.00
2019-01-16T03:40:28.873Z,0.00
2019-01-16T03:41:28.857Z,0.00
2019-01-16T03:42:28.853Z,0.00
2019-01-16T03:43:28.851Z,0.00
2019-01-16T03:44:28.869Z,0.00
2019-01-16T03:45:28.816Z,0.00
2019-01-16T03:46:28.803Z,0.00
2019-01-16T03:47:28.821Z,0.00
2019-01-16T03:48:28.776Z,0.00
2019-01-16T03:49:28.807Z,0.00
2019-01-16T03:50:28.759Z,0.00
2019-01-16T03:51:28.755Z,0.00
2019-01-16T03:52:28.739Z,0.00
2019-01-16T03:53:28.744Z,0.00
2019-01-16T03:54:28.717Z,0.00
2019-01-16T03:55:28.700Z,0.00
2019-01-16T03:56:28.709Z,0.00
2019-01-16T03:57:28.678Z,0.00
2019-01-16T03:58:28.684Z,0.00
2019-01-16T03:59:28.699Z,0.00
2019-01-16T04:00:28.651Z,0.00
2019-01-16T04:01:28.642Z,0.00
2019-01-16T04:02:28.636Z,0.00
2019-01-16T04:03:28.619Z,0.00
2019-01-16T04:04:28.608Z,0.00
2019-01-16T04:05:28.610Z,0.00
2019-01-16T04:06:28.586Z,0.00
2019-01-16T04:07:28.579Z,0.00
2019-01-16T04:08:28.575Z,0.00
2019-01-16T04:09:28.549Z,0.00
2019-01-16T04:10:28.558Z,0.00
2019-01-16T04:11:28.530Z,0.00
2019-01-16T04:12:28.526Z,0.00
2019-01-16T04:13:28.506Z,0.00
2019-01-16T04:14:28.531Z,0.00
2019-01-16T04:15:28.514Z,0.00
2019-01-16T04:16:28.469Z,0.00
2019-01-16T04:17:28.465Z,0.00
2019-01-16T04:18:28.452Z,0.00
2019-01-16T04:19:28.448Z,0.00
2019-01-16T04:20:28.468Z,0.00
2019-01-16T04:21:28.423Z,0.00
2019-01-16T04:22:28.416Z,0.00
2019-01-16T04:23:28.404Z,0.00
2019-01-16T04:24:28.386Z,0.00
2019-01-16T04:25:28.381Z,0.00
2019-01-16T04:26:28.415Z,0.00
2019-01-16T04:27:28.381Z,0.00
2019-01-16T04:28:28.339Z,0.00
2019-01-16T04:29:28.328Z,0.00
2019-01-16T04:30:28.317Z,0.00
2019-01-16T04:31:28.304Z,0.00
2019-01-16T04:32:28.338Z,0.00
2019-01-16T04:33:28.298Z,0.00
2019-01-16T04:34:28.284Z,0.00
2019-01-16T04:35:28.261Z,0.00
2019-01-16T04:36:28.271Z,0.00
2019-01-16T04:37:28.272Z,0.00
2019-01-16T04:38:28.283Z,0.00
2019-01-16T04:39:28.233Z,0.00
2019-01-16T04:40:28.220Z,0.00
2019-01-16T04:41:28.234Z,0.00
2019-01-16T04:42:30.870Z,0.00
2019-01-16T04:43:28.180Z,0.00
2019-01-16T04:44:28.181Z,0.00
2019-01-16T04:45:28.159Z,0.00
2019-01-16T04:46:28.176Z,0.00
2019-01-16T04:47:28.151Z,0.00
2019-01-16T04:48:28.142Z,0.00
2019-01-16T04:49:30.525Z,0.00
2019-01-16T04:50:28.103Z,0.00
2019-01-16T04:51:28.094Z,0.00
2019-01-16T04:52:28.087Z,0.00
2019-01-16T04:53:28.108Z,0.00
2019-01-16T04:54:28.096Z,0.00
2019-01-16T04:55:28.051Z,0.00
2019-01-16T04:56:28.040Z,0.00
2019-01-16T04:57:28.042Z,0.00
2019-01-16T04:58:28.044Z,0.00
2019-01-16T04:59:28.037Z,0.00
2019-01-16T05:00:27.991Z,0.00
2019-01-16T05:01:27.979Z,0.00
2019-01-16T05:02:27.993Z,0.00
2019-01-16T05:03:27.954Z,0.00
2019-01-16T05:04:27.959Z,0.00
2019-01-16T05:05:27.987Z,0.00
2019-01-16T05:06:27.932Z,0.00
2019-01-16T05:07:27.915Z,0.00
2019-01-16T05:08:27.911Z,0.00
2019-01-16T05:09:27.896Z,0.00
2019-01-16T05:10:27.887Z,0.00
2019-01-16T05:11:27.920Z,0.00
2019-01-16T05:12:29.441Z,0.00
2019-01-16T05:13:27.933Z,0.00
2019-01-16T05:14:27.831Z,0.00
2019-01-16T05:15:27.865Z,0.00
2019-01-16T05:16:27.815Z,0.00
2019-01-16T05:17:27.805Z,0.00
2019-01-16T05:18:27.819Z,0.00
2019-01-16T05:19:27.802Z,0.00
2019-01-16T05:20:27.771Z,0.00
2019-01-16T05:21:27.795Z,0.00
2019-01-16T05:22:27.760Z,0.00
2019-01-16T05:23:27.744Z,0.00
2019-01-16T05:24:27.762Z,0.00
2019-01-16T05:25:27.719Z,0.00
2019-01-16T05:26:27.903Z,0.00
2019-01-16T05:27:27.774Z,0.00
2019-01-16T05:28:27.684Z,0.00
2019-01-16T05:29:27.674Z,0.00
2019-01-16T05:30:27.666Z,0.00
2019-01-16T05:31:27.648Z,0.00
2019-01-16T05:32:27.699Z,0.00
2019-01-16T05:33:27.638Z,0.00
2019-01-16T05:34:27.613Z,0.00
2019-01-16T05:35:27.606Z,0.00
2019-01-16T05:36:27.783Z,0.00
2019-01-16T05:37:28.198Z,0.00
2019-01-16T05:38:27.584Z,0.00
2019-01-16T05:39:27.562Z,0.00
2019-01-16T05:40:27.593Z,0.00
2019-01-16T05:41:27.570Z,0.00
2019-01-16T05:42:27.562Z,0.00
2019-01-16T05:43:27.642Z,0.00
2019-01-16T05:44:27.560Z,0.00
2019-01-16T05:45:27.520Z,0.00
2019-01-16T05:46:27.528Z,0.00
2019-01-16T05:47:27.524Z,0.00
2019-01-16T05:48:27.521Z,0.00
2019-01-16T05:49:27.517Z,0.00
2019-01-16T05:50:27.445Z,0.00
2019-01-16T05:51:27.437Z,0.00
2019-01-16T05:52:27.435Z,0.00
2019-01-16T05:53:27.423Z,0.00
2019-01-16T05:54:27.449Z,0.00
2019-01-16T05:55:27.415Z,0.00
2019-01-16T05:56:27.384Z,0.00
2019-01-16T05:57:27.405Z,0.00
2019-01-16T05:58:27.359Z,0.00
2019-01-16T05:59:27.360Z,0.00
2019-01-16T06:00:27.350Z,0.00
2019-01-16T06:01:27.334Z,0.00
2019-01-16T06:02:27.308Z,0.00
2019-01-16T06:03:29.756Z,0.00
2019-01-16T06:04:27.972Z,0.00
2019-01-16T06:05:27.331Z,0.00
2019-01-16T06:06:27.263Z,0.00
2019-01-16T06:07:27.252Z,0.00
2019-01-16T06:08:28.830Z,0.00
2019-01-16T06:09:27.347Z,0.00
2019-01-16T06:10:27.231Z,0.00
2019-01-16T06:11:27.672Z,0.00
2019-01-16T06:12:27.209Z,0.00
2019-01-16T06:13:27.197Z,0.00
2019-01-16T06:14:27.189Z,0.00
2019-01-16T06:15:27.171Z,0.00
2019-01-16T06:16:27.179Z,0.00
2019-01-16T06:17:27.187Z,0.00
2019-01-16T06:18:27.136Z,0.00
2019-01-16T06:19:27.128Z,0.00
2019-01-16T06:20:27.156Z,0.00
2019-01-16T06:21:27.115Z,0.00
2019-01-16T06:22:27.089Z,0.00
2019-01-16T06:23:27.079Z,0.00
2019-01-16T06:24:27.072Z,0.00
2019-01-16T06:25:27.087Z,0.00
2019-01-16T06:26:27.113Z,0.00
2019-01-16T06:27:27.046Z,0.00
2019-01-16T06:28:27.044Z,0.00
2019-01-16T06:29:27.054Z,0.00
2019-01-16T06:30:27.089Z,0.00
2019-01-16T06:31:27.011Z,0.00
2019-01-16T06:32:27.001Z,0.00
2019-01-16T06:33:26.983Z,0.00
2019-01-16T06:34:26.991Z,0.00
2019-01-16T06:35:26.974Z,0.00
2019-01-16T06:36:27.107Z,0.00
2019-01-16T06:37:26.973Z,0.00
2019-01-16T06:38:27.012Z,0.00
2019-01-16T06:39:26.914Z,0.00
2019-01-16T06:40:26.967Z,0.00
2019-01-16T06:41:26.889Z,0.00
2019-01-16T06:42:26.869Z,0.00
2019-01-16T06:43:26.893Z,0.00
2019-01-16T06:44:26.873Z,0.00
2019-01-16T06:45:26.871Z,0.00
2019-01-16T06:46:26.835Z,0.00
2019-01-16T06:47:26.817Z,4.00
2019-01-16T06:48:26.814Z,0.00
2019-01-16T06:49:26.904Z,0.00
2019-01-16T06:50:26.789Z,0.00
2019-01-16T06:51:26.785Z,0.00
2019-01-16T06:52:26.762Z,0.00
2019-01-16T06:53:26.768Z,0.00
2019-01-16T06:54:28.870Z,4.00
2019-01-16T06:55:27.159Z,4.00
2019-01-16T06:56:27.065Z,4.00
2019-01-16T06:59:09.917Z,4.00
2019-01-16T07:01:26.122Z,8.00
2019-01-16T07:02:25.690Z,8.00
2019-01-16T07:03:25.682Z,8.00
2019-01-16T07:04:25.700Z,12.00
2019-01-16T07:05:25.655Z,16.00
2019-01-16T07:06:25.621Z,16.00
2019-01-16T07:07:26.358Z,20.00
2019-01-16T07:08:25.577Z,24.00
2019-01-16T07:09:25.583Z,28.00
2019-01-16T07:10:25.574Z,32.00
2019-01-16T07:11:25.581Z,36.00
2019-01-16T07:12:25.532Z,40.00
2019-01-16T07:13:25.519Z,44.00
2019-01-16T07:14:25.510Z,56.00
2019-01-16T07:15:25.540Z,64.00
2019-01-16T07:16:26.306Z,68.00
2019-01-16T07:17:25.510Z,68.00
2019-01-16T07:18:25.463Z,76.00
2019-01-16T07:19:25.572Z,80.00
2019-01-16T07:20:25.454Z,84.00
2019-01-16T07:21:25.439Z,96.00
2019-01-16T07:22:25.443Z,108.00
2019-01-16T07:23:25.421Z,120.00
2019-01-16T07:24:25.398Z,128.00
2019-01-16T07:25:25.388Z,144.00
2019-01-16T07:26:25.424Z,160.00
2019-01-16T07:27:25.383Z,164.00
2019-01-16T07:28:25.352Z,168.00
2019-01-16T07:29:25.354Z,200.00
2019-01-16T07:30:25.330Z,236.00
2019-01-16T07:31:25.339Z,276.00
2019-01-16T07:32:25.371Z,316.00
2019-01-16T07:33:25.309Z,356.00
2019-01-16T07:34:25.321Z,380.00
2019-01-16T07:35:25.282Z,392.00
2019-01-16T07:36:25.272Z,424.00
2019-01-16T07:37:25.265Z,452.00
2019-01-16T07:38:25.249Z,480.00
2019-01-16T07:39:25.234Z,536.00
2019-01-16T07:40:25.237Z,576.00
2019-01-16T07:41:25.211Z,564.00
2019-01-16T07:42:25.205Z,520.00
2019-01-16T07:43:25.310Z,544.00
2019-01-16T07:44:25.179Z,552.00
2019-01-16T07:45:25.770Z,532.00
2019-01-16T07:46:25.264Z,556.00
2019-01-16T07:47:25.151Z,608.00
2019-01-16T07:48:25.151Z,640.00
2019-01-16T07:49:25.974Z,656.00
2019-01-16T07:50:25.112Z,660.00
2019-01-16T07:51:25.095Z,684.00
2019-01-16T07:52:25.088Z,720.00
2019-01-16T07:53:25.213Z,804.00
2019-01-16T07:54:25.068Z,856.00
2019-01-16T07:55:25.058Z,900.00
2019-01-16T07:56:25.055Z,932.00
2019-01-16T07:57:25.030Z,876.00
2019-01-16T07:58:25.021Z,888.00
2019-01-16T07:59:25.047Z,940.00
2019-01-16T08:00:25.064Z,1024.00
2019-01-16T08:01:25.002Z,1028.00
2019-01-16T08:02:24.977Z,1056.00
2019-01-16T08:03:24.962Z,1136.00
2019-01-16T08:04:24.956Z,1188.00
2019-01-16T08:05:24.995Z,1248.00
2019-01-16T08:06:24.934Z,1336.00
2019-01-16T08:07:24.934Z,1340.00
2019-01-16T08:08:24.912Z,1352.00
2019-01-16T08:09:24.898Z,1440.00
2019-01-16T08:10:24.894Z,1512.00
2019-01-16T08:11:24.907Z,1516.00
2019-01-16T08:12:24.863Z,1516.00
2019-01-16T08:13:24.866Z,1536.00
2019-01-16T08:14:24.845Z,1676.00
2019-01-16T08:15:24.830Z,1752.00
2019-01-16T08:16:24.817Z,1748.00
2019-01-16T08:17:24.825Z,1852.00
2019-01-16T08:18:24.799Z,1996.00
2019-01-16T08:19:24.802Z,1840.00
2019-01-16T08:20:25.230Z,1828.00
2019-01-16T08:21:24.760Z,1968.00
2019-01-16T08:22:24.756Z,1868.00
2019-01-16T08:23:24.754Z,1804.00
2019-01-16T08:24:24.729Z,1900.00
2019-01-16T08:25:24.733Z,1884.00
2019-01-16T08:26:24.716Z,1880.00
2019-01-16T08:27:24.745Z,2096.00
2019-01-16T08:28:24.685Z,2280.00
2019-01-16T08:29:24.672Z,2476.00
2019-01-16T08:30:24.667Z,2660.00
2019-01-16T08:31:24.667Z,2848.00
2019-01-16T08:32:24.642Z,3004.00
2019-01-16T08:33:24.748Z,3152.00
2019-01-16T08:34:24.619Z,3296.00
2019-01-16T08:35:24.606Z,3404.00
2019-01-16T08:36:24.593Z,3536.00
2019-01-16T08:37:24.603Z,3656.00
2019-01-16T08:38:24.603Z,3820.00
2019-01-16T08:39:24.569Z,3948.00
2019-01-16T08:40:24.556Z,3932.00
2019-01-16T08:41:24.535Z,3864.00
2019-01-16T08:42:24.527Z,3576.00
2019-01-16T08:43:24.546Z,3516.00
2019-01-16T08:44:24.522Z,3504.00
2019-01-16T08:45:24.507Z,3556.00
2019-01-16T08:46:24.483Z,3528.00
2019-01-16T08:47:24.471Z,3548.00
2019-01-16T08:48:24.475Z,3396.00
2019-01-16T08:49:24.475Z,3304.00
2019-01-16T08:50:32.297Z,3260.00
2019-01-16T08:51:25.428Z,3044.00
2019-01-16T08:52:24.482Z,2984.00
2019-01-16T08:53:24.427Z,2888.00
2019-01-16T08:54:24.403Z,2820.00
2019-01-16T08:55:24.383Z,2644.00
2019-01-16T08:56:24.407Z,2524.00
2019-01-16T08:57:24.359Z,2556.00
2019-01-16T08:58:24.392Z,2524.00
2019-01-16T08:59:24.337Z,2796.00
2019-01-16T09:00:24.332Z,3244.00
2019-01-16T09:01:24.365Z,3460.00
2019-01-16T09:02:24.312Z,3628.00
2019-01-16T09:03:24.294Z,3596.00
2019-01-16T09:04:24.282Z,3720.00
2019-01-16T09:05:24.272Z,3516.00
2019-01-16T09:06:24.256Z,3640.00
2019-01-16T09:07:24.276Z,3632.00
2019-01-16T09:08:24.252Z,3608.00
2019-01-16T09:09:24.227Z,3592.00
2019-01-16T09:10:24.215Z,3200.00
2019-01-16T09:11:24.205Z,2912.00
2019-01-16T09:12:24.190Z,2740.00
2019-01-16T09:13:24.193Z,2592.00
2019-01-16T09:14:24.194Z,2656.00
2019-01-16T09:15:24.161Z,2928.00
2019-01-16T09:16:24.148Z,3248.00
2019-01-16T09:17:24.243Z,3612.00
2019-01-16T09:18:24.140Z,3488.00
2019-01-16T09:19:24.115Z,3848.00
2019-01-16T09:20:24.115Z,4288.00
2019-01-16T09:21:24.094Z,3832.00
2019-01-16T09:22:24.086Z,3964.00
2019-01-16T09:23:24.087Z,4520.00
2019-01-16T09:24:24.065Z,4584.00
2019-01-16T09:25:24.081Z,4984.00
2019-01-16T09:26:24.052Z,5608.00
2019-01-16T09:27:24.026Z,5980.00
2019-01-16T09:28:24.047Z,5380.00
2019-01-16T09:29:24.005Z,4860.00
2019-01-16T09:30:24.009Z,4772.00
2019-01-16T09:31:24.017Z,4952.00
2019-01-16T09:32:23.970Z,5396.00
2019-01-16T09:33:23.974Z,5900.00
2019-01-16T09:34:23.964Z,6204.00
2019-01-16T09:35:23.944Z,6676.00
2019-01-16T09:36:23.953Z,7044.00
2019-01-16T09:37:23.915Z,6700.00
2019-01-16T09:38:23.914Z,5412.00
2019-01-16T09:39:23.906Z,4892.00
2019-01-16T09:40:23.880Z,5172.00
2019-01-16T09:41:23.872Z,5260.00
2019-01-16T09:42:23.886Z,5052.00
2019-01-16T09:43:23.850Z,5192.00
2019-01-16T09:44:23.857Z,6524.00
2019-01-16T09:45:23.913Z,7284.00
2019-01-16T09:46:23.818Z,7528.00
2019-01-16T09:47:23.834Z,7444.00
2019-01-16T09:48:23.798Z,7900.00
2019-01-16T09:49:23.786Z,8472.00
2019-01-16T09:50:23.774Z,8792.00
2019-01-16T09:51:23.845Z,9324.00
2019-01-16T09:52:23.753Z,9528.00
2019-01-16T09:53:23.769Z,9448.00
2019-01-16T09:54:23.728Z,9768.00
2019-01-16T09:55:23.716Z,9988.00
2019-01-16T09:56:23.722Z,9576.00
2019-01-16T09:57:23.720Z,9368.00
2019-01-16T09:58:23.687Z,8740.00
2019-01-16T09:59:23.680Z,8124.00
2019-01-16T10:00:23.666Z,7048.00
2019-01-16T10:01:23.681Z,6128.00
2019-01-16T10:02:23.670Z,7004.00
2019-01-16T10:03:23.725Z,7504.00
2019-01-16T10:04:23.638Z,7244.00
2019-01-16T10:05:23.647Z,7176.00
2019-01-16T10:06:23.647Z,6856.00
2019-01-16T10:07:23.629Z,6548.00
2019-01-16T10:08:23.632Z,6732.00
2019-01-16T10:09:23.577Z,5792.00
2019-01-16T10:10:23.635Z,5432.00
2019-01-16T10:11:23.545Z,5908.00
2019-01-16T10:12:23.537Z,5772.00
2019-01-16T10:13:23.538Z,5484.00
2019-01-16T10:14:23.509Z,5556.00
2019-01-16T10:15:23.500Z,5120.00
2019-01-16T10:16:23.506Z,4720.00
2019-01-16T10:17:23.485Z,4336.00
2019-01-16T10:18:23.459Z,4048.00
2019-01-16T10:19:23.468Z,4200.00
2019-01-16T10:20:23.443Z,4932.00
2019-01-16T10:21:23.493Z,5496.00
2019-01-16T10:22:23.417Z,5716.00
2019-01-16T10:23:23.411Z,5544.00
2019-01-16T10:24:23.418Z,5252.00
2019-01-16T10:25:23.454Z,5476.00
2019-01-16T10:26:23.379Z,5408.00
2019-01-16T10:27:23.392Z,5564.00
2019-01-16T10:28:25.250Z,5928.00
2019-01-16T10:29:23.359Z,5484.00
2019-01-16T10:30:23.334Z,5472.00
2019-01-16T10:31:23.349Z,5580.00
2019-01-16T10:32:23.310Z,5700.00
2019-01-16T10:33:23.300Z,5268.00
2019-01-16T10:34:23.305Z,4772.00
2019-01-16T10:35:23.285Z,4008.00
2019-01-16T10:36:23.285Z,3636.00
2019-01-16T10:37:23.258Z,3352.00
2019-01-16T10:38:23.272Z,3192.00
2019-01-16T10:39:23.248Z,3336.00
2019-01-16T10:40:23.220Z,3628.00
2019-01-16T10:41:23.235Z,3728.00
2019-01-16T10:42:23.207Z,3604.00
2019-01-16T10:43:23.234Z,3388.00
2019-01-16T10:44:23.177Z,3272.00
2019-01-16T10:45:23.165Z,3112.00
2019-01-16T10:46:23.336Z,3580.00
2019-01-16T10:47:23.148Z,4680.00
2019-01-16T10:48:23.184Z,6320.00
2019-01-16T10:49:23.127Z,8992.00
2019-01-16T10:50:23.146Z,12200.00
2019-01-16T10:51:23.119Z,14760.00
2019-01-16T10:52:23.145Z,14632.00
2019-01-16T10:53:23.083Z,13808.00
2019-01-16T10:54:23.073Z,9384.00
2019-01-16T10:55:23.086Z,7336.00
2019-01-16T10:56:23.080Z,6784.00
2019-01-16T10:57:23.037Z,5924.00
2019-01-16T10:58:23.051Z,6348.00
2019-01-16T10:59:23.019Z,6084.00
2019-01-16T11:00:23.061Z,4956.00
2019-01-16T11:01:23.054Z,4064.00
2019-01-16T11:02:22.997Z,4100.00
2019-01-16T11:03:22.973Z,4404.00
2019-01-16T11:04:22.978Z,5484.00
2019-01-16T11:05:22.948Z,5956.00
2019-01-16T11:06:22.938Z,5868.00
2019-01-16T11:07:22.951Z,5936.00
2019-01-16T11:08:22.972Z,6488.00
2019-01-16T11:09:24.737Z,6356.00
2019-01-16T11:10:22.908Z,6408.00
2019-01-16T11:11:22.904Z,6388.00
2019-01-16T11:12:22.908Z,6956.00
2019-01-16T11:13:22.943Z,6968.00
2019-01-16T11:14:22.855Z,6868.00
2019-01-16T11:15:22.940Z,6828.00
2019-01-16T11:16:22.827Z,6560.00
2019-01-16T11:17:22.815Z,6104.00
2019-01-16T11:18:23.165Z,6240.00
2019-01-16T11:19:22.815Z,6420.00
2019-01-16T11:20:22.783Z,6096.00
2019-01-16T11:21:22.837Z,5768.00
2019-01-16T11:22:22.792Z,5604.00
2019-01-16T11:23:22.752Z,5560.00
2019-01-16T11:24:22.750Z,5596.00
2019-01-16T11:25:22.798Z,6192.00
2019-01-16T11:26:22.716Z,6004.00
2019-01-16T11:27:24.308Z,5212.00
2019-01-16T11:28:22.706Z,5012.00
2019-01-16T11:29:22.812Z,5124.00
2019-01-16T11:30:22.713Z,5256.00
2019-01-16T11:31:22.662Z,4960.00
2019-01-16T11:32:22.671Z,4896.00
2019-01-16T11:33:22.638Z,5188.00
2019-01-16T11:34:22.629Z,5508.00
2019-01-16T11:35:22.617Z,5732.00
2019-01-16T11:36:22.622Z,5780.00
2019-01-16T11:37:22.591Z,5576.00
2019-01-16T11:38:22.596Z,5288.00
2019-01-16T11:39:22.571Z,5360.00
2019-01-16T11:40:22.563Z,5932.00
2019-01-16T11:41:22.572Z,6124.00
2019-01-16T11:42:22.539Z,5844.00
2019-01-16T11:43:22.525Z,6024.00
2019-01-16T11:44:22.526Z,6656.00
2019-01-16T11:45:22.511Z,7412.00
2019-01-16T11:46:22.520Z,6596.00
2019-01-16T11:47:22.486Z,6636.00
2019-01-16T11:48:22.474Z,6972.00
2019-01-16T11:49:22.461Z,6632.00
2019-01-16T11:50:22.447Z,6252.00
2019-01-16T11:51:22.550Z,5816.00
2019-01-16T11:52:22.448Z,5620.00
2019-01-16T11:53:22.423Z,5288.00
2019-01-16T11:54:22.406Z,4856.00
2019-01-16T11:55:22.441Z,5032.00
2019-01-16T11:56:22.382Z,5324.00
2019-01-16T11:57:22.392Z,5112.00
2019-01-16T11:58:23.235Z,5516.00
2019-01-16T11:59:22.350Z,5508.00
2019-01-16T12:00:22.340Z,5484.00
2019-01-16T12:01:22.330Z,5604.00
2019-01-16T12:02:22.397Z,5864.00
2019-01-16T12:03:22.326Z,6368.00
2019-01-16T12:04:22.317Z,6168.00
2019-01-16T12:05:22.300Z,5548.00
2019-01-16T12:06:22.275Z,5400.00
2019-01-16T12:07:22.323Z,5856.00
2019-01-16T12:08:22.263Z,6224.00
2019-01-16T12:09:22.245Z,6556.00
2019-01-16T12:10:22.260Z,7056.00
2019-01-16T12:11:22.214Z,7376.00
2019-01-16T12:12:22.209Z,7560.00
2019-01-16T12:13:22.196Z,8016.00
2019-01-16T12:14:22.201Z,8172.00
2019-01-16T12:15:22.173Z,7252.00
2019-01-16T12:16:22.184Z,7024.00
2019-01-16T12:17:22.154Z,6764.00
2019-01-16T12:18:22.139Z,7168.00
2019-01-16T12:19:22.142Z,7036.00
2019-01-16T12:20:22.134Z,6516.00
2019-01-16T12:21:26.258Z,6488.00
2019-01-16T12:22:23.119Z,6868.00
2019-01-16T12:23:22.083Z,6636.00
2019-01-16T12:24:22.101Z,6348.00
2019-01-16T12:25:22.077Z,6328.00
2019-01-16T12:26:22.059Z,6272.00
2019-01-16T12:27:22.089Z,6344.00
2019-01-16T12:28:22.041Z,6600.00
2019-01-16T12:29:22.038Z,6660.00
2019-01-16T12:30:22.015Z,6896.00
2019-01-16T12:31:21.995Z,7168.00
2019-01-16T12:32:21.990Z,7548.00
2019-01-16T12:33:22.009Z,7464.00
2019-01-16T12:34:21.986Z,7660.00
2019-01-16T12:35:21.954Z,8080.00
2019-01-16T12:36:21.961Z,7972.00
2019-01-16T12:37:21.931Z,8196.00
2019-01-16T12:38:21.928Z,8412.00
2019-01-16T12:39:21.931Z,7692.00
2019-01-16T12:40:21.947Z,7016.00
2019-01-16T12:41:21.902Z,6776.00
2019-01-16T12:42:21.879Z,6948.00
2019-01-16T12:43:21.901Z,6992.00
2019-01-16T12:44:21.881Z,6808.00
2019-01-16T12:45:21.894Z,7024.00
2019-01-16T12:46:21.836Z,7424.00
2019-01-16T12:47:21.826Z,8240.00
2019-01-16T12:48:21.841Z,8292.00
2019-01-16T12:49:21.840Z,7980.00
2019-01-16T12:50:21.784Z,9068.00